ELLX/LUX METAR and TAF weather

Enter ICAO airport designator
Station Type Date Time Source
ELLX METAR 2019/08/21 22:20 UTC NOAA

ELLX 212220Z 06006KT CAVOK 17/09 Q1027 NOSIG


Station Type Date Time Source
ELLX Decoded METAR 2019/08/21 22:20 UTC NOAA

Station name not available
Aug 21, 2019 - 06:20 PM EDT / 2019.08.21 2220 UTC
Wind: from the ENE (060 degrees) at 7 MPH (6 KT):0
Visibility: greater than 7 mile(s):0
Temperature: 62 F (17 C)
Dew Point: 48 F (9 C)
Relative Humidity: 59%
Pressure (altimeter): 30.33 in. Hg (1027 hPa)
ob: ELLX 212220Z 06006KT CAVOK 17/09 Q1027 NOSIG
cycle: 22

Station Type Date Time Source
ELLX TAF 2019/08/21 18:27 UTC NOAA

TAF ELLX 211700Z 2118/2224 06006KT CAVOK
TEMPO 2122/2206 36004KT
TEMPO 2221/2224 36005KT

Example: see airport list